Time;durP1;ratioP1;P1;durP2;ratioP2;P2;SDS_P1;SDS_P2;PMS_P1;PMS_P2;Temp;Humidity;BMP_temperature;BMP_pressure;BME280_temperature;BME280_humidity;BME280_pressure;Samples;Min_cycle;Max_cycle;Signal;HPM_P1;HPM_P2
2022/03/25 00:00:19;;;;;;;27.23;18.73;;;;;;;;;;4942433;29;20253;-69
2022/03/25 00:02:45;;;;;;;24.40;18.30;;;;;;;;;;4944741;29;20337;-70
2022/03/25 00:05:12;;;;;;;22.13;17.67;;;;;;;;;;4947996;28;20233;-69
2022/03/25 00:07:41;;;;;;;28.83;18.57;;;;;;;;;;4934413;29;20227;-70
2022/03/25 00:10:09;;;;;;;27.23;19.07;;;;;;;;;;4939052;29;20990;-70
2022/03/25 00:12:40;;;;;;;32.33;19.60;;;;;;;;;;4945172;28;20238;-70
2022/03/25 00:15:06;;;;;;;26.93;19.23;;;;;;;;;;4931406;29;20251;-71
2022/03/25 00:17:32;;;;;;;26.10;18.63;;;;;;;;;;4925388;29;20231;-71
2022/03/25 00:19:57;;;;;;;27.37;19.13;;;;;;;;;;4921502;29;20227;-71
2022/03/25 00:22:25;;;;;;;25.43;19.20;;;;;;;;;;4945948;28;20229;-71
2022/03/25 00:24:50;;;;;;;25.17;19.47;;;;;;;;;;4946283;28;20720;-71
2022/03/25 00:27:17;;;;;;;27.90;18.33;;;;;;;;;;4955269;28;20222;-72
2022/03/25 00:29:43;;;;;;;28.30;19.60;;;;;;;;;;4952656;29;20219;-72
2022/03/25 00:32:09;;;;;;;27.03;19.10;;;;;;;;;;4926743;29;20223;-72
2022/03/25 00:34:41;;;;;;;26.73;19.40;;;;;;;;;;4941733;29;20893;-71
2022/03/25 00:37:09;;;;;;;26.20;19.30;;;;;;;;;;4938992;28;20223;-70
2022/03/25 00:39:35;;;;;;;25.80;19.37;;;;;;;;;;4952365;29;20616;-71
2022/03/25 00:42:03;;;;;;;25.53;19.57;;;;;;;;;;4933867;29;20240;-70
2022/03/25 00:44:33;;;;;;;28.50;20.60;;;;;;;;;;4924899;29;20598;-70
2022/03/25 00:46:59;;;;;;;27.97;19.27;;;;;;;;;;4942353;29;20733;-70
2022/03/25 00:49:25;;;;;;;31.20;20.23;;;;;;;;;;4926538;29;20227;-70
2022/03/25 00:51:54;;;;;;;29.17;19.70;;;;;;;;;;4922296;29;20227;-70
2022/03/25 00:54:27;;;;;;;29.97;21.90;;;;;;;;;;4925897;29;20251;-69
2022/03/25 00:56:52;;;;;;;29.23;20.60;;;;;;;;;;4926461;29;20280;-70
2022/03/25 00:59:20;;;;;;;30.43;21.13;;;;;;;;;;4944415;29;20215;-70
2022/03/25 01:01:48;;;;;;;27.57;20.17;;;;;;;;;;4948597;29;20223;-70
2022/03/25 01:04:13;;;;;;;27.80;20.30;;;;;;;;;;4922780;28;20218;-70
2022/03/25 01:06:39;;;;;;;31.17;21.07;;;;;;;;;;4931165;29;20619;-69
2022/03/25 01:09:08;;;;;;;31.10;21.30;;;;;;;;;;4949816;28;20289;-70
2022/03/25 01:11:36;;;;;;;29.70;20.30;;;;;;;;;;4931418;29;20693;-70
2022/03/25 01:14:04;;;;;;;33.20;21.87;;;;;;;;;;4948477;29;20237;-70
2022/03/25 01:16:30;;;;;;;29.03;21.10;;;;;;;;;;4941004;29;20230;-71
2022/03/25 01:18:55;;;;;;;29.00;20.83;;;;;;;;;;4942557;28;20308;-70
2022/03/25 01:21:26;;;;;;;31.13;20.60;;;;;;;;;;4944683;28;20816;-70
2022/03/25 01:23:54;;;;;;;33.93;21.00;;;;;;;;;;4923373;29;20269;-70
2022/03/25 01:26:19;;;;;;;28.23;20.67;;;;;;;;;;4946084;29;20226;-70
2022/03/25 01:28:46;;;;;;;28.40;21.13;;;;;;;;;;4935783;29;20219;-70
2022/03/25 01:31:15;;;;;;;29.50;21.43;;;;;;;;;;4946058;28;20281;-70
2022/03/25 01:33:40;;;;;;;32.77;22.63;;;;;;;;;;4933208;29;20729;-71
2022/03/25 01:36:10;;;;;;;30.03;21.47;;;;;;;;;;4936886;29;20227;-70
2022/03/25 01:38:38;;;;;;;30.60;21.50;;;;;;;;;;4952710;29;20219;-71
2022/03/25 01:41:04;;;;;;;30.80;21.80;;;;;;;;;;4952499;28;20674;-70
2022/03/25 01:43:31;;;;;;;28.63;21.57;;;;;;;;;;4925146;29;20314;-70
2022/03/25 01:45:59;;;;;;;32.43;21.93;;;;;;;;;;4925122;29;20227;-70
2022/03/25 01:48:27;;;;;;;33.03;23.43;;;;;;;;;;4924774;29;20235;-71
2022/03/25 01:50:53;;;;;;;31.20;22.73;;;;;;;;;;4929356;29;20290;-70
2022/03/25 01:53:22;;;;;;;30.87;23.47;;;;;;;;;;4922253;29;20238;-70
2022/03/25 01:55:53;;;;;;;36.07;23.10;;;;;;;;;;4924350;29;20259;-70
2022/03/25 01:58:19;;;;;;;32.90;23.03;;;;;;;;;;4938940;29;20613;-70
2022/03/25 02:00:45;;;;;;;35.13;22.73;;;;;;;;;;4921097;29;20305;-70
2022/03/25 02:03:12;;;;;;;30.23;21.80;;;;;;;;;;4942840;29;20305;-70
2022/03/25 02:05:37;;;;;;;32.93;22.97;;;;;;;;;;4920310;29;20228;-70
2022/03/25 02:08:06;;;;;;;33.27;22.83;;;;;;;;;;4935068;29;20639;-70
2022/03/25 02:10:34;;;;;;;35.43;22.60;;;;;;;;;;4919603;29;20219;-69
2022/03/25 02:13:02;;;;;;;31.30;23.03;;;;;;;;;;4940959;29;20648;-72
2022/03/25 02:15:33;;;;;;;31.23;22.73;;;;;;;;;;4942924;29;20652;-70
2022/03/25 02:18:10;;;;;;;33.33;23.20;;;;;;;;;;4920253;28;20227;-70
2022/03/25 02:20:38;;;;;;;34.97;23.00;;;;;;;;;;4944580;29;20273;-70
2022/03/25 02:23:05;;;;;;;33.80;24.40;;;;;;;;;;4925234;29;20235;-70
2022/03/25 02:25:37;;;;;;;31.93;23.20;;;;;;;;;;4926370;29;20227;-69
2022/03/25 02:28:04;;;;;;;31.77;23.33;;;;;;;;;;4917583;29;21048;-70
2022/03/25 02:30:34;;;;;;;29.03;22.83;;;;;;;;;;4933683;29;20230;-70
2022/03/25 02:33:01;;;;;;;31.77;23.17;;;;;;;;;;4929672;29;20226;-70
2022/03/25 02:35:35;;;;;;;31.50;24.13;;;;;;;;;;4932660;29;20222;-70
2022/03/25 02:38:02;;;;;;;37.47;24.60;;;;;;;;;;4945242;29;20226;-71
2022/03/25 02:40:28;;;;;;;33.00;22.80;;;;;;;;;;4928673;29;20229;-70
2022/03/25 02:42:53;;;;;;;34.53;24.47;;;;;;;;;;4940050;29;20232;-69
2022/03/25 02:45:21;;;;;;;34.70;23.73;;;;;;;;;;4923208;29;20211;-69
2022/03/25 02:47:48;;;;;;;30.57;22.23;;;;;;;;;;4934097;29;20282;-69
2022/03/25 02:50:18;;;;;;;34.47;23.50;;;;;;;;;;4947389;28;20331;-71
2022/03/25 02:52:46;;;;;;;36.80;23.83;;;;;;;;;;4932284;29;20306;-69
2022/03/25 02:55:12;;;;;;;32.87;22.97;;;;;;;;;;4933565;29;20236;-70
2022/03/25 02:57:38;;;;;;;33.57;24.67;;;;;;;;;;4940001;28;20603;-71
2022/03/25 03:00:08;;;;;;;33.77;24.87;;;;;;;;;;4935282;29;20226;-71
2022/03/25 03:02:34;;;;;;;36.63;23.70;;;;;;;;;;4944751;28;20278;-69
2022/03/25 03:05:02;;;;;;;34.07;24.13;;;;;;;;;;4942262;28;20220;-71
2022/03/25 03:07:28;;;;;;;34.43;24.63;;;;;;;;;;4918434;29;20231;-70
2022/03/25 03:09:54;;;;;;;32.47;23.67;;;;;;;;;;4923410;29;20223;-70
2022/03/25 03:12:20;;;;;;;34.17;24.57;;;;;;;;;;4929918;29;20258;-70
2022/03/25 03:14:47;;;;;;;33.93;24.03;;;;;;;;;;4929593;29;20336;-70
2022/03/25 03:17:13;;;;;;;36.80;24.93;;;;;;;;;;4941190;29;20219;-71
2022/03/25 03:19:41;;;;;;;37.10;25.47;;;;;;;;;;4937449;29;20294;-71
2022/03/25 03:22:10;;;;;;;35.03;23.97;;;;;;;;;;4921232;29;20252;-72
2022/03/25 03:24:36;;;;;;;35.37;24.33;;;;;;;;;;4922531;29;20223;-71
2022/03/25 03:27:01;;;;;;;38.77;24.43;;;;;;;;;;4944352;29;20251;-71
2022/03/25 03:29:29;;;;;;;33.20;23.77;;;;;;;;;;4926524;29;20733;-69
2022/03/25 03:31:57;;;;;;;35.53;24.30;;;;;;;;;;4932768;29;20263;-70
2022/03/25 03:34:22;;;;;;;36.30;25.10;;;;;;;;;;4943982;28;20235;-71
2022/03/25 03:36:48;;;;;;;40.53;24.87;;;;;;;;;;4942624;28;20732;-72
2022/03/25 03:39:13;;;;;;;38.13;25.90;;;;;;;;;;4943074;28;20231;-72
2022/03/25 03:41:41;;;;;;;35.67;24.97;;;;;;;;;;4941853;29;20274;-70
2022/03/25 03:44:07;;;;;;;40.13;26.30;;;;;;;;;;4943322;29;20775;-71
2022/03/25 03:46:34;;;;;;;35.20;24.47;;;;;;;;;;4929857;29;20223;-70
2022/03/25 03:49:00;;;;;;;37.30;24.53;;;;;;;;;;4942823;28;20362;-70
2022/03/25 03:51:25;;;;;;;38.57;25.77;;;;;;;;;;4933325;29;20218;-70
2022/03/25 03:53:51;;;;;;;36.20;24.10;;;;;;;;;;4943501;29;20237;-69
2022/03/25 03:56:19;;;;;;;35.90;24.73;;;;;;;;;;4931161;29;20227;-70
2022/03/25 03:58:47;;;;;;;35.30;25.33;;;;;;;;;;4938513;29;20233;-70
2022/03/25 04:01:12;;;;;;;35.83;25.30;;;;;;;;;;4959544;28;20237;-71
2022/03/25 04:03:38;;;;;;;34.77;24.80;;;;;;;;;;4957244;29;20246;-70
2022/03/25 04:06:04;;;;;;;33.73;23.57;;;;;;;;;;4960695;28;20266;-70
2022/03/25 04:08:31;;;;;;;37.17;24.47;;;;;;;;;;4951240;29;20305;-70
2022/03/25 04:10:58;;;;;;;32.13;23.53;;;;;;;;;;4947164;29;20227;-70
2022/03/25 04:13:24;;;;;;;32.57;24.00;;;;;;;;;;4964115;29;20292;-70
2022/03/25 04:15:50;;;;;;;38.33;24.47;;;;;;;;;;4936468;29;20699;-71
2022/03/25 04:18:15;;;;;;;33.33;24.73;;;;;;;;;;4951065;29;20244;-71
2022/03/25 04:20:41;;;;;;;35.93;25.30;;;;;;;;;;4951493;29;20722;-70
2022/03/25 04:23:09;;;;;;;36.60;25.63;;;;;;;;;;4936845;29;20230;-69
2022/03/25 04:25:34;;;;;;;35.13;25.77;;;;;;;;;;4933419;29;20237;-69
2022/03/25 04:28:05;;;;;;;34.07;24.27;;;;;;;;;;4953554;29;20222;-72
2022/03/25 04:30:32;;;;;;;37.23;26.17;;;;;;;;;;4930818;29;20693;-70
2022/03/25 04:33:00;;;;;;;41.47;26.27;;;;;;;;;;4931949;29;20245;-69
2022/03/25 04:35:28;;;;;;;34.73;25.53;;;;;;;;;;4952824;29;20223;-71
2022/03/25 04:37:54;;;;;;;38.93;25.23;;;;;;;;;;4953698;29;20304;-70
2022/03/25 04:40:20;;;;;;;36.03;26.13;;;;;;;;;;4945923;28;20255;-70
2022/03/25 04:42:49;;;;;;;35.67;25.30;;;;;;;;;;4936617;29;20242;-71
2022/03/25 04:45:17;;;;;;;38.27;25.60;;;;;;;;;;4931009;29;20222;-70
2022/03/25 04:47:44;;;;;;;36.87;24.20;;;;;;;;;;4923166;29;20235;-70
2022/03/25 04:50:09;;;;;;;39.80;26.87;;;;;;;;;;4927736;29;20219;-70
2022/03/25 04:52:37;;;;;;;37.07;26.27;;;;;;;;;;4943862;29;20222;-70
2022/03/25 04:55:03;;;;;;;37.97;26.83;;;;;;;;;;4949232;28;20302;-71
2022/03/25 04:57:34;;;;;;;39.17;27.33;;;;;;;;;;4948303;29;20306;-69
2022/03/25 05:00:02;;;;;;;37.53;25.43;;;;;;;;;;4933558;29;20272;-69
2022/03/25 05:02:28;;;;;;;41.20;27.50;;;;;;;;;;4925363;29;20705;-71
2022/03/25 05:04:55;;;;;;;41.47;27.30;;;;;;;;;;4942919;29;20266;-71
2022/03/25 05:07:20;;;;;;;40.63;27.70;;;;;;;;;;4936178;28;20705;-71
2022/03/25 05:09:46;;;;;;;41.93;27.87;;;;;;;;;;4926182;29;20311;-71
2022/03/25 05:12:12;;;;;;;39.70;27.37;;;;;;;;;;4938320;28;20798;-69
2022/03/25 05:14:40;;;;;;;39.63;27.73;;;;;;;;;;4944712;29;20227;-70
2022/03/25 05:17:10;;;;;;;45.13;28.17;;;;;;;;;;4937587;29;20601;-71
2022/03/25 05:19:36;;;;;;;43.53;28.47;;;;;;;;;;4943648;28;20221;-70
2022/03/25 05:22:01;;;;;;;41.80;27.70;;;;;;;;;;4936921;29;20313;-69
2022/03/25 05:24:27;;;;;;;41.33;27.53;;;;;;;;;;4954914;29;20282;-71
2022/03/25 05:26:53;;;;;;;43.07;27.47;;;;;;;;;;4939539;29;20232;-70
2022/03/25 05:29:19;;;;;;;40.47;27.70;;;;;;;;;;4955074;29;20227;-70
2022/03/25 05:31:47;;;;;;;48.00;29.93;;;;;;;;;;4948634;28;20215;-70
2022/03/25 05:34:12;;;;;;;42.97;28.23;;;;;;;;;;4940354;29;20735;-70
2022/03/25 05:36:39;;;;;;;43.73;27.67;;;;;;;;;;4953316;28;20225;-72
2022/03/25 05:39:05;;;;;;;44.63;27.23;;;;;;;;;;4929577;28;20326;-71
2022/03/25 05:41:31;;;;;;;40.67;27.70;;;;;;;;;;4940775;29;20231;-71
2022/03/25 05:43:56;;;;;;;44.17;29.13;;;;;;;;;;4922688;29;20219;-70
2022/03/25 05:46:22;;;;;;;41.10;27.67;;;;;;;;;;4947959;29;20234;-71
2022/03/25 05:48:49;;;;;;;45.50;29.17;;;;;;;;;;4932078;29;20666;-70
2022/03/25 05:51:15;;;;;;;39.27;27.87;;;;;;;;;;4942111;28;20314;-70
2022/03/25 05:53:43;;;;;;;41.30;27.83;;;;;;;;;;4931746;29;20318;-70
2022/03/25 05:56:11;;;;;;;40.33;29.00;;;;;;;;;;4916266;29;20682;-71
2022/03/25 05:58:37;;;;;;;37.73;28.03;;;;;;;;;;4930273;29;20233;-71
2022/03/25 06:01:04;;;;;;;41.73;27.30;;;;;;;;;;4946097;28;20235;-73
2022/03/25 06:03:31;;;;;;;42.77;26.80;;;;;;;;;;4954283;29;20219;-71
2022/03/25 06:05:56;;;;;;;40.87;26.97;;;;;;;;;;4940137;29;20295;-71
2022/03/25 06:08:23;;;;;;;43.30;28.13;;;;;;;;;;4958864;28;20266;-72
2022/03/25 06:10:49;;;;;;;39.93;27.07;;;;;;;;;;4953130;29;20277;-72
2022/03/25 06:13:15;;;;;;;39.20;26.40;;;;;;;;;;4934354;29;20230;-73
2022/03/25 06:15:43;;;;;;;40.77;27.00;;;;;;;;;;4948417;29;20227;-71
2022/03/25 06:18:08;;;;;;;39.80;28.40;;;;;;;;;;4946767;29;20231;-72
2022/03/25 06:20:34;;;;;;;36.57;26.17;;;;;;;;;;4926583;29;20578;-70
2022/03/25 06:23:00;;;;;;;38.40;27.67;;;;;;;;;;4944275;29;20227;-72
2022/03/25 06:25:28;;;;;;;37.30;27.43;;;;;;;;;;4933867;29;20223;-77
2022/03/25 06:27:54;;;;;;;40.87;28.17;;;;;;;;;;4935241;29;20223;-72
2022/03/25 06:30:22;;;;;;;39.27;27.60;;;;;;;;;;4927948;29;20222;-72
2022/03/25 06:32:47;;;;;;;38.50;27.87;;;;;;;;;;4924019;29;20259;-73
2022/03/25 06:35:17;;;;;;;39.13;27.80;;;;;;;;;;4942757;29;20251;-71
2022/03/25 06:37:45;;;;;;;40.20;28.13;;;;;;;;;;4946190;28;20333;-71
2022/03/25 06:40:12;;;;;;;40.20;28.13;;;;;;;;;;4921628;29;20713;-71
2022/03/25 06:42:42;;;;;;;37.37;26.40;;;;;;;;;;4923415;29;20250;-71
2022/03/25 06:45:09;;;;;;;38.67;28.27;;;;;;;;;;4918095;29;20287;-71
2022/03/25 06:47:36;;;;;;;39.83;27.13;;;;;;;;;;4937565;29;20220;-71
2022/03/25 06:50:05;;;;;;;40.57;27.73;;;;;;;;;;4940952;29;20242;-72
2022/03/25 06:52:33;;;;;;;40.07;26.93;;;;;;;;;;4944476;29;20311;-70
2022/03/25 06:55:02;;;;;;;43.23;28.17;;;;;;;;;;4927763;29;20725;-71
2022/03/25 06:57:28;;;;;;;37.50;26.13;;;;;;;;;;4943707;29;20233;-71
2022/03/25 06:59:53;;;;;;;40.73;27.40;;;;;;;;;;4947462;28;20310;-71
2022/03/25 07:02:19;;;;;;;38.90;27.50;;;;;;;;;;4940026;29;20843;-71
2022/03/25 07:04:45;;;;;;;39.57;27.80;;;;;;;;;;4932436;29;20226;-70
2022/03/25 07:07:13;;;;;;;41.23;27.57;;;;;;;;;;4934405;29;20227;-71
2022/03/25 07:09:43;;;;;;;39.07;25.83;;;;;;;;;;4934585;29;20768;-72
2022/03/25 07:12:09;;;;;;;38.57;27.20;;;;;;;;;;4942344;29;20223;-72
2022/03/25 07:14:34;;;;;;;38.70;27.57;;;;;;;;;;4931331;29;20270;-72
2022/03/25 07:17:00;;;;;;;35.03;27.23;;;;;;;;;;4921122;29;20226;-71
2022/03/25 07:19:32;;;;;;;37.40;27.57;;;;;;;;;;4938130;29;20234;-71
2022/03/25 07:22:00;;;;;;;35.77;27.17;;;;;;;;;;4934468;29;20233;-71
2022/03/25 07:24:26;;;;;;;33.57;26.07;;;;;;;;;;4922288;29;20770;-71
2022/03/25 07:26:54;;;;;;;40.97;28.63;;;;;;;;;;4935091;29;20262;-72
2022/03/25 07:29:22;;;;;;;39.93;29.60;;;;;;;;;;4937241;29;20254;-73
2022/03/25 07:31:48;;;;;;;40.50;29.83;;;;;;;;;;4941989;28;20211;-72
2022/03/25 07:34:16;;;;;;;44.50;30.60;;;;;;;;;;4938913;29;20305;-71
2022/03/25 07:36:44;;;;;;;42.37;30.30;;;;;;;;;;4935129;29;20314;-71
2022/03/25 07:39:10;;;;;;;38.30;28.10;;;;;;;;;;4948260;29;20227;-71
2022/03/25 07:41:35;;;;;;;35.30;27.10;;;;;;;;;;4937084;28;20223;-71
2022/03/25 07:44:01;;;;;;;39.10;26.93;;;;;;;;;;4941874;29;20944;-71
2022/03/25 07:46:28;;;;;;;39.03;27.07;;;;;;;;;;4934040;29;20223;-73
2022/03/25 07:48:53;;;;;;;39.37;27.77;;;;;;;;;;4926708;29;20215;-71
2022/03/25 07:51:21;;;;;;;38.87;27.93;;;;;;;;;;4939730;28;20211;-72
2022/03/25 07:53:49;;;;;;;36.30;28.20;;;;;;;;;;4938046;29;20226;-71
2022/03/25 07:56:14;;;;;;;37.07;27.53;;;;;;;;;;4939061;28;20231;-72
2022/03/25 07:58:43;;;;;;;36.67;27.83;;;;;;;;;;4936612;29;20215;-71
2022/03/25 08:01:11;;;;;;;35.80;26.67;;;;;;;;;;4944252;28;20214;-72
2022/03/25 08:03:38;;;;;;;36.97;26.17;;;;;;;;;;4939140;29;20223;-71
2022/03/25 08:06:04;;;;;;;36.60;25.57;;;;;;;;;;4936372;29;20362;-71
2022/03/25 08:08:29;;;;;;;32.43;25.80;;;;;;;;;;4932500;29;20741;-72
2022/03/25 08:10:56;;;;;;;32.53;25.40;;;;;;;;;;4931917;29;20228;-71
2022/03/25 08:13:24;;;;;;;34.53;25.43;;;;;;;;;;4910235;29;20221;-72
2022/03/25 08:15:52;;;;;;;32.83;25.67;;;;;;;;;;4920756;29;20267;-71
2022/03/25 08:18:17;;;;;;;32.73;25.90;;;;;;;;;;4928128;29;20222;-72
2022/03/25 08:20:49;;;;;;;32.40;25.73;;;;;;;;;;4923305;29;20270;-72
2022/03/25 08:28:54;;;;;;;33.17;25.43;;;;;;;;;;4928562;29;20227;-70
2022/03/25 08:31:22;;;;;;;33.13;25.60;;;;;;;;;;4938325;28;20595;-72
2022/03/25 08:33:50;;;;;;;32.57;25.70;;;;;;;;;;4932438;29;20226;-71
2022/03/25 08:36:16;;;;;;;33.80;25.37;;;;;;;;;;4932498;29;20264;-73
2022/03/25 08:38:41;;;;;;;30.97;24.70;;;;;;;;;;4917484;29;20215;-72
2022/03/25 08:41:09;;;;;;;35.47;24.83;;;;;;;;;;4938315;29;20286;-71
2022/03/25 08:43:37;;;;;;;31.77;25.00;;;;;;;;;;4943790;29;20239;-73
2022/03/25 08:46:07;;;;;;;30.87;24.73;;;;;;;;;;4930113;29;20227;-73
2022/03/25 08:48:36;;;;;;;31.03;22.23;;;;;;;;;;4936817;29;20223;-73
2022/03/25 08:51:04;;;;;;;31.60;21.83;;;;;;;;;;4925113;29;20241;-74
2022/03/25 08:53:30;;;;;;;27.47;20.73;;;;;;;;;;4922678;29;20215;-72
2022/03/25 08:56:01;;;;;;;29.20;20.10;;;;;;;;;;4940648;29;20258;-73
2022/03/25 08:58:35;;;;;;;26.87;19.47;;;;;;;;;;4925018;29;20226;-73
2022/03/25 09:01:01;;;;;;;28.63;20.20;;;;;;;;;;4938778;28;20228;-72
2022/03/25 09:03:29;;;;;;;27.37;19.60;;;;;;;;;;4929817;29;20233;-72
2022/03/25 09:05:55;;;;;;;26.80;19.03;;;;;;;;;;4939474;29;20222;-73
2022/03/25 09:08:21;;;;;;;25.00;18.17;;;;;;;;;;4939305;28;20228;-74
2022/03/25 09:10:49;;;;;;;30.55;19.58;;;;;;;;;;4942730;28;20219;-73
2022/03/25 09:13:15;;;;;;;27.33;17.77;;;;;;;;;;4927321;29;20616;-73
2022/03/25 09:15:43;;;;;;;24.25;18.20;;;;;;;;;;4935770;29;20237;-74
2022/03/25 09:18:08;;;;;;;24.92;17.65;;;;;;;;;;4923814;29;20278;-70
2022/03/25 09:20:34;;;;;;;23.17;17.25;;;;;;;;;;4953195;28;20222;-72
2022/03/25 09:23:02;;;;;;;26.77;17.88;;;;;;;;;;4930751;29;20226;-71
2022/03/25 09:25:28;;;;;;;27.52;18.75;;;;;;;;;;4936652;29;20222;-73
2022/03/25 09:27:55;;;;;;;27.10;18.25;;;;;;;;;;4937664;29;20720;-72
2022/03/25 09:30:21;;;;;;;27.95;17.77;;;;;;;;;;4941923;29;20712;-72
2022/03/25 09:32:46;;;;;;;25.60;17.75;;;;;;;;;;4950040;29;20218;-73
2022/03/25 09:35:13;;;;;;;23.05;16.70;;;;;;;;;;4946168;29;20227;-72
2022/03/25 09:37:43;;;;;;;20.05;14.43;;;;;;;;;;4936528;29;20238;-73
2022/03/25 09:40:18;;;;;;;21.00;13.50;;;;;;;;;;4946062;28;20231;-73
2022/03/25 09:42:50;;;;;;;21.58;15.00;;;;;;;;;;4944864;29;20227;-73
2022/03/25 09:45:20;;;;;;;24.95;15.10;;;;;;;;;;4941407;29;20236;-75
2022/03/25 09:47:47;;;;;;;20.83;14.38;;;;;;;;;;4928638;29;20215;-73
2022/03/25 09:50:19;;;;;;;23.42;16.17;;;;;;;;;;4943906;28;20315;-73
2022/03/25 09:52:44;;;;;;;25.77;15.60;;;;;;;;;;4926212;29;20238;-73
2022/03/25 09:55:11;;;;;;;24.17;16.90;;;;;;;;;;4937258;29;20231;-72
2022/03/25 09:57:41;;;;;;;23.30;16.35;;;;;;;;;;4933645;29;20215;-73
2022/03/25 10:00:08;;;;;;;23.20;16.58;;;;;;;;;;4928917;29;20223;-73
2022/03/25 10:02:37;;;;;;;24.35;16.77;;;;;;;;;;4945910;28;20331;-73
2022/03/25 10:05:18;;;;;;;30.10;17.60;;;;;;;;;;4927285;29;20338;-73
2022/03/25 10:07:59;;;;;;;23.55;17.30;;;;;;;;;;4934266;29;20656;-72
2022/03/25 10:10:30;;;;;;;26.35;18.77;;;;;;;;;;4940313;28;20262;-72
2022/03/25 10:13:07;;;;;;;27.02;19.42;;;;;;;;;;4926514;29;20229;-72
2022/03/25 10:15:37;;;;;;;27.77;19.17;;;;;;;;;;4937421;29;20741;-72
2022/03/25 10:18:08;;;;;;;26.65;18.67;;;;;;;;;;4940355;28;20291;-73
2022/03/25 10:20:38;;;;;;;25.88;18.42;;;;;;;;;;4943517;29;20684;-73
2022/03/25 10:23:12;;;;;;;23.73;17.70;;;;;;;;;;4945348;28;20235;-73
2022/03/25 10:25:49;;;;;;;22.38;15.88;;;;;;;;;;4928557;29;20225;-73
2022/03/25 10:28:27;;;;;;;28.20;19.80;;;;;;;;;;4947483;29;20282;-72
2022/03/25 10:31:04;;;;;;;24.60;17.13;;;;;;;;;;4944238;28;20230;-73
2022/03/25 10:33:34;;;;;;;22.23;17.95;;;;;;;;;;4935139;29;20227;-73
2022/03/25 10:36:07;;;;;;;27.23;20.77;;;;;;;;;;4918938;29;20661;-74
2022/03/25 10:38:43;;;;;;;24.50;18.42;;;;;;;;;;4942618;28;20229;-73
2022/03/25 10:41:12;;;;;;;22.35;17.92;;;;;;;;;;4945532;29;20309;-74
2022/03/25 10:43:48;;;;;;;24.70;17.17;;;;;;;;;;4939734;29;20302;-73
2022/03/25 10:47:21;;;;;;;27.77;17.33;;;;;;;;;;4934781;29;20211;-73
2022/03/25 10:49:51;;;;;;;25.85;18.98;;;;;;;;;;4907717;29;20225;-72
2022/03/25 10:52:34;;;;;;;27.33;18.80;;;;;;;;;;4926365;29;20606;-72
2022/03/25 10:55:20;;;;;;;23.50;17.92;;;;;;;;;;4940884;28;20269;-72
2022/03/25 10:57:49;;;;;;;24.20;17.50;;;;;;;;;;4941850;28;20250;-72
2022/03/25 11:00:15;;;;;;;25.60;18.00;;;;;;;;;;4931894;28;20696;-73
2022/03/25 11:02:42;;;;;;;24.02;17.80;;;;;;;;;;4927467;29;20241;-72
2022/03/25 11:05:09;;;;;;;26.27;18.17;;;;;;;;;;4932967;28;20223;-73
2022/03/25 11:07:36;;;;;;;22.15;16.98;;;;;;;;;;4942162;29;20305;-72
2022/03/25 11:10:05;;;;;;;24.60;17.10;;;;;;;;;;4936831;29;20223;-72
2022/03/25 11:12:30;;;;;;;24.73;17.02;;;;;;;;;;4939251;29;20760;-73
2022/03/25 11:14:59;;;;;;;24.65;17.77;;;;;;;;;;4924782;29;20235;-74
2022/03/25 11:17:27;;;;;;;24.65;17.60;;;;;;;;;;4936026;28;20218;-74
2022/03/25 11:19:56;;;;;;;22.80;17.00;;;;;;;;;;4944192;28;20250;-72
2022/03/25 11:22:29;;;;;;;26.42;18.70;;;;;;;;;;4928407;29;20231;-73
2022/03/25 11:25:04;;;;;;;23.90;17.67;;;;;;;;;;4941161;29;20301;-72
2022/03/25 11:27:33;;;;;;;23.88;17.23;;;;;;;;;;4929142;28;20224;-73
2022/03/25 11:30:09;;;;;;;25.90;17.40;;;;;;;;;;4933672;29;20215;-73
2022/03/25 11:32:57;;;;;;;20.63;16.58;;;;;;;;;;4923432;29;20234;-74
2022/03/25 11:35:53;;;;;;;22.60;18.00;;;;;;;;;;4934698;29;20294;-72
2022/03/25 11:38:22;;;;;;;25.25;17.27;;;;;;;;;;4922232;29;20224;-73
2022/03/25 11:40:49;;;;;;;21.83;16.90;;;;;;;;;;4931391;29;20230;-71
2022/03/25 11:43:19;;;;;;;24.83;17.17;;;;;;;;;;4937392;29;20230;-74
2022/03/25 11:46:00;;;;;;;21.35;16.70;;;;;;;;;;4937246;29;20230;-72
2022/03/25 11:48:26;;;;;;;26.38;16.83;;;;;;;;;;4942183;29;20237;-72
2022/03/25 11:50:56;;;;;;;22.45;15.27;;;;;;;;;;4953859;29;20223;-72
2022/03/25 11:53:23;;;;;;;22.83;17.30;;;;;;;;;;4961744;28;20436;-72
2022/03/25 11:56:07;;;;;;;20.17;16.55;;;;;;;;;;4946745;29;20242;-72
2022/03/25 11:58:55;;;;;;;21.02;16.33;;;;;;;;;;4949368;28;20282;-72
2022/03/25 12:01:21;;;;;;;19.65;15.35;;;;;;;;;;4946934;29;20279;-73
2022/03/25 12:03:49;;;;;;;20.98;15.05;;;;;;;;;;4953008;29;20242;-73
2022/03/25 12:06:18;;;;;;;21.63;16.27;;;;;;;;;;4930655;29;20231;-73
2022/03/25 12:09:19;;;;;;;19.65;15.65;;;;;;;;;;4952416;29;20227;-72
2022/03/25 12:12:17;;;;;;;21.67;16.60;;;;;;;;;;4933781;28;20729;-72
2022/03/25 12:15:10;;;;;;;19.70;15.40;;;;;;;;;;4906617;29;20266;-73
2022/03/25 12:17:47;;;;;;;22.80;15.98;;;;;;;;;;4938260;28;20322;-72
2022/03/25 12:20:13;;;;;;;21.80;16.27;;;;;;;;;;4945678;28;20937;-73
2022/03/25 12:22:39;;;;;;;18.55;15.48;;;;;;;;;;4944024;28;20303;-71
2022/03/25 12:25:09;;;;;;;24.63;16.45;;;;;;;;;;4945520;29;20286;-73
2022/03/25 12:27:35;;;;;;;20.30;15.50;;;;;;;;;;4942230;28;20311;-71
2022/03/25 12:30:03;;;;;;;23.83;15.90;;;;;;;;;;4950799;28;20309;-72
2022/03/25 12:32:32;;;;;;;22.05;15.93;;;;;;;;;;4931415;29;20286;-72
2022/03/25 12:35:06;;;;;;;21.10;15.55;;;;;;;;;;4929492;29;20369;-72
2022/03/25 12:37:34;;;;;;;20.17;14.43;;;;;;;;;;4936573;29;20223;-73
2022/03/25 12:40:09;;;;;;;21.10;14.23;;;;;;;;;;4938709;29;20711;-72
2022/03/25 12:42:34;;;;;;;17.73;13.27;;;;;;;;;;4944799;29;20270;-72
2022/03/25 12:45:06;;;;;;;22.70;16.02;;;;;;;;;;4925435;29;20235;-73
2022/03/25 12:47:33;;;;;;;20.35;15.10;;;;;;;;;;4928782;29;20241;-72
2022/03/25 12:50:04;;;;;;;25.63;16.90;;;;;;;;;;4936653;28;20226;-73
2022/03/25 12:53:00;;;;;;;21.63;15.70;;;;;;;;;;4945376;29;20223;-72
2022/03/25 12:55:29;;;;;;;21.45;14.40;;;;;;;;;;4914096;29;20258;-73
2022/03/25 12:58:07;;;;;;;21.83;15.50;;;;;;;;;;4937848;28;20743;-72
2022/03/25 13:00:35;;;;;;;20.30;14.85;;;;;;;;;;4937118;28;20226;-73
2022/03/25 13:03:01;;;;;;;18.20;14.20;;;;;;;;;;4945729;28;20302;-71
2022/03/25 13:05:27;;;;;;;20.70;15.75;;;;;;;;;;4928868;29;20232;-72
2022/03/25 13:07:54;;;;;;;21.48;16.42;;;;;;;;;;4923520;29;20302;-72
2022/03/25 13:10:19;;;;;;;23.58;17.58;;;;;;;;;;4932458;29;20302;-73
2022/03/25 13:12:53;;;;;;;24.27;17.90;;;;;;;;;;4942006;29;20700;-72
2022/03/25 13:15:32;;;;;;;22.70;17.85;;;;;;;;;;4930561;28;20222;-73
2022/03/25 13:18:03;;;;;;;25.90;18.02;;;;;;;;;;4948003;29;20214;-73
2022/03/25 13:20:41;;;;;;;26.45;19.73;;;;;;;;;;4940324;29;20302;-72
2022/03/25 13:23:14;;;;;;;24.35;18.27;;;;;;;;;;4929442;29;20763;-74
2022/03/25 13:25:41;;;;;;;25.13;19.13;;;;;;;;;;4948563;28;20219;-71
2022/03/25 13:28:09;;;;;;;23.52;17.60;;;;;;;;;;4944480;28;20229;-72
2022/03/25 13:30:35;;;;;;;29.42;20.00;;;;;;;;;;4945894;28;20288;-73
2022/03/25 13:33:05;;;;;;;25.80;19.73;;;;;;;;;;4922227;29;20340;-72
2022/03/25 13:35:39;;;;;;;29.75;20.23;;;;;;;;;;4912535;29;20239;-74
2022/03/25 13:38:25;;;;;;;26.50;19.90;;;;;;;;;;4915451;29;20231;-73
2022/03/25 13:40:57;;;;;;;30.63;20.25;;;;;;;;;;4900605;29;20681;-73
2022/03/25 13:43:26;;;;;;;24.75;19.27;;;;;;;;;;4940992;28;20320;-73
2022/03/25 13:46:00;;;;;;;23.52;18.92;;;;;;;;;;4918347;29;20361;-73
2022/03/25 13:48:41;;;;;;;25.90;19.55;;;;;;;;;;4942518;29;20691;-72
2022/03/25 13:51:19;;;;;;;25.00;18.80;;;;;;;;;;4936861;28;21531;-73
2022/03/25 13:53:49;;;;;;;25.02;19.70;;;;;;;;;;4932717;29;20219;-73
2022/03/25 13:56:21;;;;;;;26.48;19.90;;;;;;;;;;4942413;29;20751;-73
2022/03/25 13:58:55;;;;;;;26.95;20.95;;;;;;;;;;4950086;28;20211;-72
2022/03/25 14:01:43;;;;;;;26.85;20.00;;;;;;;;;;4929081;29;20720;-73
2022/03/25 14:04:12;;;;;;;27.98;21.48;;;;;;;;;;4938981;28;20225;-73
2022/03/25 14:07:21;;;;;;;27.55;21.63;;;;;;;;;;4941947;29;20218;-74
2022/03/25 14:09:57;;;;;;;30.73;23.08;;;;;;;;;;4885411;29;20235;-72
2022/03/25 14:12:47;;;;;;;29.70;22.55;;;;;;;;;;4925706;28;20992;-71
2022/03/25 14:15:17;;;;;;;29.38;21.98;;;;;;;;;;4914550;29;20231;-74
2022/03/25 14:17:46;;;;;;;24.88;20.80;;;;;;;;;;4950212;28;20633;-72
2022/03/25 14:20:18;;;;;;;27.60;21.75;;;;;;;;;;4932739;29;20226;-73
2022/03/25 14:22:45;;;;;;;28.85;21.92;;;;;;;;;;4906431;29;20230;-73
2022/03/25 14:25:12;;;;;;;28.50;21.88;;;;;;;;;;4930462;28;20701;-73
2022/03/25 14:27:39;;;;;;;29.45;22.77;;;;;;;;;;4925168;29;20223;-74
2022/03/25 14:30:05;;;;;;;27.60;22.23;;;;;;;;;;4933090;29;20231;-73
2022/03/25 14:32:30;;;;;;;28.92;22.88;;;;;;;;;;4928201;29;20589;-72